createdAt,value
2022-08-03T00:00:31.007Z,2.30
2022-08-03T00:02:58.835Z,2.30
2022-08-03T00:05:27.760Z,2.40
2022-08-03T00:07:55.350Z,2.42
2022-08-03T00:10:23.505Z,2.47
2022-08-03T00:12:51.337Z,2.50
2022-08-03T00:15:18.908Z,2.78
2022-08-03T00:17:53.066Z,2.20
2022-08-03T00:20:21.722Z,2.20
2022-08-03T00:22:51.464Z,2.10
2022-08-03T00:25:19.194Z,2.67
2022-08-03T00:27:47.795Z,2.15
2022-08-03T00:30:16.955Z,2.50
2022-08-03T00:32:45.581Z,2.53
2022-08-03T00:35:37.069Z,2.35
2022-08-03T00:38:02.294Z,2.70
2022-08-03T00:40:29.977Z,2.30
2022-08-03T00:42:58.861Z,2.45
2022-08-03T00:45:28.131Z,2.35
2022-08-03T00:47:56.405Z,2.20
2022-08-03T00:50:24.606Z,2.85
2022-08-03T00:52:52.937Z,2.33
2022-08-03T00:55:22.094Z,2.13
2022-08-03T00:57:50.316Z,2.50
2022-08-03T01:00:18.875Z,2.72
2022-08-03T01:02:46.616Z,2.80
2022-08-03T01:05:14.680Z,2.33
2022-08-03T01:07:44.906Z,2.65
2022-08-03T01:10:15.065Z,2.50
2022-08-03T01:12:48.394Z,2.30
2022-08-03T01:15:20.492Z,2.60
2022-08-03T01:17:50.429Z,3.00
2022-08-03T01:20:19.395Z,2.97
2022-08-03T01:22:56.607Z,2.65
2022-08-03T01:25:29.425Z,2.72
2022-08-03T01:28:03.308Z,2.50
2022-08-03T01:30:32.665Z,2.60
2022-08-03T01:33:02.086Z,2.30
2022-08-03T01:35:36.708Z,2.67
2022-08-03T01:38:08.023Z,2.72
2022-08-03T01:40:37.591Z,2.90
2022-08-03T01:43:07.264Z,2.45
2022-08-03T01:45:37.529Z,2.28
2022-08-03T01:48:06.019Z,2.53
2022-08-03T01:50:34.281Z,2.80
2022-08-03T01:53:21.341Z,2.42
2022-08-03T01:55:50.408Z,2.50
2022-08-03T01:58:19.895Z,2.50
2022-08-03T02:00:50.149Z,3.00
2022-08-03T02:03:18.025Z,2.38
2022-08-03T02:05:46.592Z,2.63
2022-08-03T02:08:14.911Z,2.20
2022-08-03T02:10:44.053Z,3.03
2022-08-03T02:13:12.111Z,2.70
2022-08-03T02:15:40.742Z,2.50
2022-08-03T02:18:10.239Z,2.50
2022-08-03T02:20:39.119Z,2.50
2022-08-03T02:23:07.211Z,2.45
2022-08-03T02:25:35.909Z,2.63
2022-08-03T02:28:07.491Z,2.90
2022-08-03T02:30:38.439Z,2.42
2022-08-03T02:33:06.690Z,2.50
2022-08-03T02:35:37.927Z,2.30
2022-08-03T02:38:08.480Z,3.03
2022-08-03T02:40:37.413Z,2.47
2022-08-03T02:43:12.663Z,2.97
2022-08-03T02:45:45.569Z,2.83
2022-08-03T02:48:16.581Z,2.60
2022-08-03T02:50:45.730Z,2.42
2022-08-03T02:53:13.667Z,2.35
2022-08-03T02:55:43.199Z,2.75
2022-08-03T02:58:14.297Z,2.67
2022-08-03T03:00:42.251Z,2.40
2022-08-03T03:03:11.185Z,2.90
2022-08-03T03:05:56.364Z,2.88
2022-08-03T03:08:28.753Z,2.70
2022-08-03T03:10:57.316Z,2.80
2022-08-03T03:13:25.522Z,2.60
2022-08-03T03:15:54.151Z,2.35
2022-08-03T03:18:22.989Z,2.67
2022-08-03T03:20:51.296Z,2.40
2022-08-03T03:23:19.139Z,2.40
2022-08-03T03:25:48.383Z,2.95
2022-08-03T03:28:16.280Z,2.22
2022-08-03T03:30:43.970Z,2.40
2022-08-03T03:33:11.903Z,2.80
2022-08-03T03:35:39.759Z,2.70
2022-08-03T03:38:10.068Z,2.55
2022-08-03T03:40:37.940Z,2.60
2022-08-03T03:43:09.834Z,2.70
2022-08-03T03:45:37.946Z,2.65
2022-08-03T03:48:05.925Z,2.80
2022-08-03T03:50:34.290Z,2.63
2022-08-03T03:53:02.463Z,2.60
2022-08-03T03:55:30.477Z,2.65
2022-08-03T03:57:58.440Z,3.20
2022-08-03T04:00:27.384Z,2.50
2022-08-03T04:02:55.122Z,2.45
2022-08-03T04:05:32.352Z,2.70
2022-08-03T04:08:10.888Z,3.00
2022-08-03T04:10:48.391Z,2.47
2022-08-03T04:13:16.777Z,2.53
2022-08-03T04:15:46.491Z,2.88
2022-08-03T04:18:16.365Z,2.72
2022-08-03T04:20:46.373Z,3.05
2022-08-03T04:23:17.513Z,2.40
2022-08-03T04:25:45.242Z,2.83
2022-08-03T04:28:29.815Z,2.70
2022-08-03T04:31:00.649Z,2.50
2022-08-03T04:33:30.373Z,2.60
2022-08-03T04:36:02.803Z,3.20
2022-08-03T04:38:32.645Z,2.80
2022-08-03T04:41:00.793Z,2.78
2022-08-03T04:43:28.730Z,3.10
2022-08-03T04:45:56.848Z,2.72
2022-08-03T04:48:26.154Z,3.00
2022-08-03T04:50:54.417Z,2.72
2022-08-03T04:53:22.352Z,2.97
2022-08-03T04:55:50.883Z,2.83
2022-08-03T04:58:18.462Z,2.67
2022-08-03T05:00:50.591Z,3.10
2022-08-03T05:03:20.445Z,3.22
2022-08-03T05:06:09.404Z,2.65
2022-08-03T05:08:45.254Z,3.47
2022-08-03T05:11:14.348Z,2.67
2022-08-03T05:13:41.913Z,2.92
2022-08-03T05:16:09.536Z,2.95
2022-08-03T05:18:37.136Z,3.00
2022-08-03T05:21:06.043Z,2.30
2022-08-03T05:23:33.683Z,2.83
2022-08-03T05:26:01.276Z,2.50
2022-08-03T05:28:29.020Z,2.63
2022-08-03T05:30:56.625Z,2.83
2022-08-03T05:33:24.269Z,2.70
2022-08-03T05:36:02.727Z,2.80
2022-08-03T05:38:34.702Z,2.70
2022-08-03T05:41:21.698Z,2.80
2022-08-03T05:43:50.724Z,2.60
2022-08-03T05:46:18.358Z,2.97
2022-08-03T05:48:45.955Z,2.70
2022-08-03T05:51:13.686Z,2.60
2022-08-03T05:53:43.153Z,2.35
2022-08-03T05:56:14.189Z,2.85
2022-08-03T05:58:44.107Z,2.22
2022-08-03T06:01:11.988Z,2.80
2022-08-03T06:03:39.626Z,2.67
2022-08-03T06:06:07.283Z,2.30
2022-08-03T06:08:35.090Z,2.42
2022-08-03T06:11:04.696Z,2.20
2022-08-03T06:13:32.458Z,2.40
2022-08-03T06:16:00.018Z,2.20
2022-08-03T06:18:27.699Z,2.22
2022-08-03T06:20:55.584Z,2.67
2022-08-03T06:23:54.532Z,2.00
2022-08-03T06:26:12.224Z,2.40
2022-08-03T06:28:52.869Z,2.28
2022-08-03T06:31:22.643Z,2.42
2022-08-03T06:34:30.489Z,2.20
2022-08-03T06:36:38.013Z,2.20
2022-08-03T06:39:05.806Z,1.90
2022-08-03T06:41:38.145Z,2.08
2022-08-03T06:44:12.564Z,2.30
2022-08-03T06:46:40.569Z,2.00
2022-08-03T06:49:08.277Z,1.92
2022-08-03T06:52:05.109Z,2.25
2022-08-03T06:54:24.319Z,2.20
2022-08-03T06:56:53.285Z,2.08
2022-08-03T07:00:07.972Z,2.25
2022-08-03T07:02:09.646Z,2.15
2022-08-03T07:04:37.270Z,2.15
2022-08-03T07:07:04.936Z,2.15
2022-08-03T07:09:32.824Z,2.30
2022-08-03T07:12:02.298Z,1.98
2022-08-03T07:14:29.924Z,2.20
2022-08-03T07:16:58.869Z,2.10
2022-08-03T07:19:26.494Z,2.03
2022-08-03T07:21:54.108Z,2.17
2022-08-03T07:24:25.945Z,1.95
2022-08-03T07:26:56.278Z,1.98
2022-08-03T07:29:25.194Z,2.10
2022-08-03T07:31:52.795Z,2.20
2022-08-03T07:34:20.411Z,1.92
2022-08-03T07:36:48.032Z,2.30
2022-08-03T07:39:17.627Z,2.38
2022-08-03T07:41:45.806Z,2.20
2022-08-03T07:44:13.598Z,2.50
2022-08-03T07:46:42.712Z,2.45
2022-08-03T07:49:10.361Z,2.25
2022-08-03T07:51:38.062Z,2.40
2022-08-03T07:54:05.680Z,2.63
2022-08-03T07:56:33.306Z,2.83
2022-08-03T07:59:02.295Z,2.55
2022-08-03T08:01:30.112Z,2.38
2022-08-03T08:03:59.102Z,2.20
2022-08-03T08:06:26.704Z,2.47
2022-08-03T08:08:55.136Z,2.55
2022-08-03T08:11:23.330Z,2.78
2022-08-03T08:13:50.969Z,2.65
2022-08-03T08:16:18.535Z,2.83
2022-08-03T08:19:04.840Z,2.53
2022-08-03T08:21:53.261Z,2.28
2022-08-03T08:24:21.284Z,2.70
2022-08-03T08:26:48.984Z,2.50
2022-08-03T08:29:16.544Z,2.50
2022-08-03T08:31:44.244Z,2.53
2022-08-03T08:34:11.860Z,3.08
2022-08-03T08:36:40.679Z,2.92
2022-08-03T08:39:08.573Z,2.72
2022-08-03T08:41:36.211Z,2.63
2022-08-03T08:44:03.921Z,2.80
2022-08-03T08:46:33.031Z,2.75
2022-08-03T08:49:04.979Z,2.42
2022-08-03T08:51:54.518Z,2.40
2022-08-03T08:54:26.909Z,2.63
2022-08-03T08:56:57.249Z,2.78
2022-08-03T08:59:25.498Z,2.70
2022-08-03T09:01:57.515Z,2.67
2022-08-03T09:04:25.624Z,2.65
2022-08-03T09:07:17.722Z,2.40
2022-08-03T09:10:04.693Z,2.35
2022-08-03T09:12:41.647Z,2.65
2022-08-03T09:15:17.646Z,2.35
2022-08-03T09:17:50.384Z,2.90
2022-08-03T09:20:18.794Z,2.78
2022-08-03T09:22:55.404Z,2.45
2022-08-03T09:25:29.452Z,2.10
2022-08-03T09:28:04.530Z,2.67
2022-08-03T09:30:34.742Z,2.53
2022-08-03T09:33:03.121Z,2.50
2022-08-03T09:35:53.074Z,2.55
2022-08-03T09:38:19.169Z,2.47
2022-08-03T09:40:48.075Z,2.78
2022-08-03T09:43:17.754Z,2.40
2022-08-03T09:45:45.707Z,1.90
2022-08-03T09:48:29.329Z,2.50
2022-08-03T09:51:13.378Z,2.20
2022-08-03T09:53:58.510Z,2.33
2022-08-03T09:56:39.961Z,2.30
2022-08-03T09:59:07.958Z,2.35
2022-08-03T10:01:36.073Z,2.20
2022-08-03T10:04:05.263Z,2.47
2022-08-03T10:06:33.493Z,2.47
2022-08-03T10:09:09.112Z,2.15
2022-08-03T10:11:41.284Z,2.20
2022-08-03T10:14:11.543Z,2.30
2022-08-03T10:16:40.656Z,2.50
2022-08-03T10:19:10.093Z,2.30
2022-08-03T10:21:38.881Z,2.45
2022-08-03T10:24:07.896Z,2.15
2022-08-03T10:26:36.623Z,2.42
2022-08-03T10:29:05.188Z,2.05
2022-08-03T10:31:57.568Z,2.35
2022-08-03T10:34:27.143Z,2.15
2022-08-03T10:36:57.476Z,2.22
2022-08-03T10:39:27.499Z,2.65
2022-08-03T10:41:58.148Z,2.60
2022-08-03T10:44:26.941Z,2.40
2022-08-03T10:46:56.682Z,2.58
2022-08-03T10:49:33.917Z,2.50
2022-08-03T10:52:08.427Z,2.47
2022-08-03T10:54:56.390Z,2.42
2022-08-03T10:57:36.014Z,2.40
2022-08-03T11:00:06.438Z,2.40
2022-08-03T11:02:45.274Z,2.35
2022-08-03T11:05:23.983Z,2.50
2022-08-03T11:08:12.802Z,3.08
2022-08-03T11:10:40.484Z,2.55
2022-08-03T11:13:08.531Z,2.40
2022-08-03T11:15:36.277Z,2.20
2022-08-03T11:18:11.278Z,2.38
2022-08-03T11:20:46.810Z,2.92
2022-08-03T11:23:16.322Z,2.25
2022-08-03T11:25:55.458Z,2.25
2022-08-03T11:28:26.782Z,2.10
2022-08-03T11:30:54.585Z,2.08
2022-08-03T11:33:31.048Z,2.58
2022-08-03T11:35:59.476Z,2.13
2022-08-03T11:38:28.384Z,2.33
2022-08-03T11:40:56.195Z,2.20
2022-08-03T11:43:35.170Z,2.30
2022-08-03T11:46:03.954Z,2.35
2022-08-03T11:48:35.880Z,2.00
2022-08-03T11:51:03.814Z,2.10
2022-08-03T11:53:32.768Z,2.10
2022-08-03T11:56:12.765Z,2.15
2022-08-03T11:59:00.815Z,2.10
2022-08-03T12:01:35.195Z,2.20
2022-08-03T12:04:04.442Z,1.80
2022-08-03T12:06:51.966Z,2.10
2022-08-03T12:09:21.328Z,1.88
2022-08-03T12:11:50.824Z,2.50
2022-08-03T12:14:50.338Z,2.08
2022-08-03T12:17:14.779Z,1.92
2022-08-03T12:19:42.796Z,1.92
2022-08-03T12:22:10.507Z,2.00
2022-08-03T12:24:43.451Z,2.22
2022-08-03T12:27:11.089Z,2.35
2022-08-03T12:29:38.745Z,2.25
2022-08-03T12:32:06.405Z,2.10
2022-08-03T12:34:47.057Z,2.30
2022-08-03T12:37:19.011Z,2.38
2022-08-03T12:40:02.602Z,2.15
2022-08-03T12:42:34.972Z,2.72
2022-08-03T12:45:17.789Z,2.60
2022-08-03T12:47:55.150Z,2.35
2022-08-03T12:50:27.024Z,2.30
2022-08-03T12:52:54.701Z,2.45
2022-08-03T12:55:24.610Z,2.38
2022-08-03T12:57:52.224Z,2.10
2022-08-03T13:00:21.401Z,1.98
2022-08-03T13:03:24.799Z,1.98
2022-08-03T13:05:47.716Z,2.10
2022-08-03T13:08:18.944Z,2.33
2022-08-03T13:10:48.201Z,1.75
2022-08-03T13:13:15.876Z,2.30
2022-08-03T13:15:47.704Z,1.90
2022-08-03T13:18:17.261Z,1.92
2022-08-03T13:20:45.629Z,1.98
2022-08-03T13:23:15.527Z,2.20
2022-08-03T13:25:55.535Z,1.80
2022-08-03T13:28:24.111Z,1.70
2022-08-03T13:30:51.731Z,1.83
2022-08-03T13:33:19.444Z,1.77
2022-08-03T13:35:47.113Z,2.03
2022-08-03T13:38:15.392Z,1.80
2022-08-03T13:40:46.103Z,2.05
2022-08-03T13:43:18.320Z,1.60
2022-08-03T13:45:51.259Z,1.75
2022-08-03T13:48:37.040Z,1.63
2022-08-03T13:51:22.115Z,1.90
2022-08-03T13:53:50.642Z,1.60
2022-08-03T13:56:18.200Z,1.67
2022-08-03T13:58:47.571Z,1.85
2022-08-03T14:01:15.454Z,1.77
2022-08-03T14:03:43.136Z,1.73
2022-08-03T14:06:10.804Z,1.63
2022-08-03T14:08:38.444Z,1.60
2022-08-03T14:11:06.121Z,1.83
2022-08-03T14:13:33.752Z,1.80
2022-08-03T14:16:02.658Z,1.60
2022-08-03T14:18:33.478Z,1.60
2022-08-03T14:21:05.865Z,1.60
2022-08-03T14:23:34.893Z,1.95
2022-08-03T14:26:02.518Z,1.58
2022-08-03T14:28:30.119Z,1.88
2022-08-03T14:30:57.861Z,1.50
2022-08-03T14:33:28.255Z,1.50
2022-08-03T14:36:14.162Z,1.80
2022-08-03T14:38:41.897Z,1.58
2022-08-03T14:41:12.223Z,1.35
2022-08-03T14:44:01.482Z,1.60
2022-08-03T14:46:29.470Z,1.60
2022-08-03T14:50:29.597Z,1.67
2022-08-03T14:51:51.654Z,1.90
2022-08-03T14:54:21.916Z,1.60
2022-08-03T14:56:49.528Z,1.63
2022-08-03T14:59:17.107Z,1.52
2022-08-03T15:02:04.925Z,1.90
2022-08-03T15:04:33.668Z,1.50
2022-08-03T15:07:01.307Z,1.63
2022-08-03T15:09:28.868Z,1.77
2022-08-03T15:11:56.517Z,1.60
2022-08-03T15:14:28.486Z,1.50
2022-08-03T15:17:00.744Z,1.65
2022-08-03T15:20:01.132Z,1.75
2022-08-03T15:22:20.699Z,1.50
2022-08-03T15:24:53.655Z,1.40
2022-08-03T15:27:21.566Z,1.58
2022-08-03T15:30:07.212Z,1.50
2022-08-03T15:32:36.965Z,1.50
2022-08-03T15:35:05.012Z,1.80
2022-08-03T15:37:34.769Z,1.40
2022-08-03T15:40:02.564Z,1.50
2022-08-03T15:42:30.932Z,1.70
2022-08-03T15:44:59.203Z,1.63
2022-08-03T15:47:26.857Z,1.40
2022-08-03T15:49:54.498Z,1.48
2022-08-03T15:52:22.197Z,1.50
2022-08-03T15:54:51.192Z,1.48
2022-08-03T15:57:19.124Z,1.45
2022-08-03T15:59:47.087Z,1.33
2022-08-03T16:02:14.845Z,1.67
2022-08-03T16:04:42.450Z,1.50
2022-08-03T16:07:12.726Z,1.50
2022-08-03T16:09:43.515Z,1.58
2022-08-03T16:12:16.205Z,1.50
2022-08-03T16:14:52.297Z,1.60
2022-08-03T16:17:39.352Z,1.60
2022-08-03T16:20:10.805Z,1.73
2022-08-03T16:22:55.609Z,1.77
2022-08-03T16:25:23.649Z,1.75
2022-08-03T16:28:03.238Z,1.80
2022-08-03T16:30:35.318Z,1.83
2022-08-03T16:33:02.947Z,1.70
2022-08-03T16:35:30.632Z,1.83
2022-08-03T16:37:58.477Z,1.52
2022-08-03T16:40:26.846Z,1.60
2022-08-03T16:42:55.727Z,1.55
2022-08-03T16:45:23.546Z,1.85
2022-08-03T16:48:01.705Z,1.67
2022-08-03T16:50:33.403Z,1.92
2022-08-03T16:53:01.063Z,2.10
2022-08-03T16:55:48.379Z,1.80
2022-08-03T16:58:19.354Z,1.63
2022-08-03T17:01:10.873Z,1.60
2022-08-03T17:04:02.196Z,1.58
2022-08-03T17:06:34.314Z,1.60
2022-08-03T17:09:03.196Z,1.70
2022-08-03T17:11:33.042Z,1.92
2022-08-03T17:14:05.352Z,1.60
2022-08-03T17:16:35.540Z,1.77
2022-08-03T17:19:07.020Z,1.77
2022-08-03T17:21:36.913Z,1.92
2022-08-03T17:24:12.371Z,1.67
2022-08-03T17:26:43.561Z,1.50
2022-08-03T17:29:14.570Z,1.90
2022-08-03T17:31:49.633Z,2.10
2022-08-03T17:34:18.116Z,1.50
2022-08-03T17:37:03.583Z,1.60
2022-08-03T17:39:57.157Z,1.73
2022-08-03T17:42:39.141Z,1.83
2022-08-03T17:45:08.674Z,1.95
2022-08-03T17:47:43.900Z,1.90
2022-08-03T17:50:24.363Z,1.60
2022-08-03T17:52:58.329Z,1.83
2022-08-03T17:55:55.011Z,1.90
2022-08-03T17:58:17.882Z,2.15
2022-08-03T18:01:00.570Z,1.60
2022-08-03T18:03:56.958Z,2.00
2022-08-03T18:06:28.561Z,2.13
2022-08-03T18:09:04.889Z,2.00
2022-08-03T18:11:50.652Z,2.13
2022-08-03T18:14:23.864Z,2.25
2022-08-03T18:16:57.279Z,2.20
2022-08-03T18:20:01.072Z,1.80
2022-08-03T18:22:13.299Z,2.40
2022-08-03T18:24:42.599Z,1.83
2022-08-03T18:27:15.712Z,2.30
2022-08-03T18:29:43.942Z,2.13
2022-08-03T18:32:16.937Z,2.03
2022-08-03T18:34:53.109Z,2.30
2022-08-03T18:37:25.221Z,2.30
2022-08-03T18:39:55.769Z,2.10
2022-08-03T18:42:27.095Z,2.08
2022-08-03T18:44:55.944Z,2.30
2022-08-03T18:47:51.021Z,2.50
2022-08-03T18:50:22.524Z,2.17
2022-08-03T18:52:52.993Z,1.98
2022-08-03T18:55:33.022Z,2.42
2022-08-03T18:58:18.244Z,2.28
2022-08-03T19:00:54.156Z,2.28
2022-08-03T19:03:43.689Z,2.50
2022-08-03T19:06:19.380Z,2.13
2022-08-03T19:08:50.047Z,2.60
2022-08-03T19:11:22.473Z,2.50
2022-08-03T19:13:57.354Z,2.03
2022-08-03T19:16:29.047Z,2.63
2022-08-03T19:19:00.009Z,2.53
2022-08-03T19:21:29.419Z,2.15
2022-08-03T19:24:00.367Z,2.50
2022-08-03T19:26:31.235Z,2.20
2022-08-03T19:28:59.699Z,2.40
2022-08-03T19:31:31.177Z,2.20
2022-08-03T19:34:04.866Z,2.47
2022-08-03T19:36:34.433Z,2.13
2022-08-03T19:39:09.094Z,2.25
2022-08-03T19:41:42.075Z,2.70
2022-08-03T19:44:11.446Z,2.17
2022-08-03T19:46:44.673Z,2.15
2022-08-03T19:49:16.258Z,2.72
2022-08-03T19:52:02.101Z,2.70
2022-08-03T19:54:36.410Z,2.83
2022-08-03T19:57:07.911Z,2.28
2022-08-03T19:59:49.831Z,2.58
2022-08-03T20:02:27.310Z,2.10
2022-08-03T20:04:57.630Z,2.35
2022-08-03T20:07:28.617Z,2.25
2022-08-03T20:09:57.311Z,2.42
2022-08-03T20:12:28.289Z,2.15
2022-08-03T20:14:56.882Z,2.45
2022-08-03T20:17:54.348Z,2.38
2022-08-03T20:20:14.181Z,2.40
2022-08-03T20:22:42.983Z,2.50
2022-08-03T20:25:16.423Z,2.53
2022-08-03T20:28:06.990Z,2.63
2022-08-03T20:30:37.929Z,2.10
2022-08-03T20:33:05.652Z,2.60
2022-08-03T20:35:34.802Z,2.50
2022-08-03T20:38:02.425Z,2.30
2022-08-03T20:40:29.990Z,2.40
2022-08-03T20:42:57.679Z,2.40
2022-08-03T20:46:00.231Z,2.42
2022-08-03T20:48:13.061Z,2.47
2022-08-03T20:50:45.467Z,2.28
2022-08-03T20:53:13.376Z,2.35
2022-08-03T20:56:01.923Z,2.65
2022-08-03T20:58:30.262Z,2.60
2022-08-03T21:00:58.647Z,2.33
2022-08-03T21:03:26.279Z,2.40
2022-08-03T21:06:11.378Z,2.58
2022-08-03T21:11:41.385Z,2.35
2022-08-03T21:13:08.100Z,2.28
2022-08-03T21:14:13.929Z,2.50
2022-08-03T21:16:44.546Z,2.65
2022-08-03T21:19:12.379Z,2.40
2022-08-03T21:21:42.452Z,2.30
2022-08-03T21:24:10.669Z,2.55
2022-08-03T21:26:39.448Z,2.33
2022-08-03T21:29:08.139Z,2.50
2022-08-03T21:31:36.132Z,2.63
2022-08-03T21:34:05.452Z,2.50
2022-08-03T21:36:33.889Z,2.47
2022-08-03T21:39:03.686Z,2.10
2022-08-03T21:41:32.533Z,2.72
2022-08-03T21:44:00.423Z,2.58
2022-08-03T21:46:30.367Z,2.72
2022-08-03T21:50:05.268Z,2.50
2022-08-03T21:51:49.740Z,2.53
2022-08-03T21:54:19.602Z,2.60
2022-08-03T21:56:48.315Z,2.67
2022-08-03T21:59:17.153Z,2.60
2022-08-03T22:01:46.406Z,2.40
2022-08-03T22:04:50.100Z,2.60
2022-08-03T22:07:07.829Z,2.85
2022-08-03T22:09:36.987Z,2.58
2022-08-03T22:12:05.197Z,2.80
2022-08-03T22:14:33.026Z,2.63
2022-08-03T22:17:06.483Z,2.50
2022-08-03T22:19:34.993Z,2.55
2022-08-03T22:22:04.453Z,3.00
2022-08-03T22:24:33.060Z,2.50
2022-08-03T22:27:16.705Z,2.75
2022-08-03T22:29:44.414Z,2.30
2022-08-03T22:32:12.020Z,2.60
2022-08-03T22:34:40.188Z,2.67
2022-08-03T22:37:07.992Z,2.60
2022-08-03T22:39:37.785Z,2.70
2022-08-03T22:42:06.890Z,2.67
2022-08-03T22:44:35.969Z,2.50
2022-08-03T22:47:04.394Z,2.53
2022-08-03T22:49:32.407Z,2.53
2022-08-03T22:52:01.356Z,2.80
2022-08-03T22:54:31.576Z,2.80
2022-08-03T22:59:47.364Z,3.03
2022-08-03T23:02:20.982Z,2.65
2022-08-03T23:04:51.057Z,2.78
2022-08-03T23:07:21.864Z,2.80
2022-08-03T23:09:50.166Z,2.78
2022-08-03T23:12:19.070Z,2.83
2022-08-03T23:14:52.443Z,2.60
2022-08-03T23:17:20.620Z,2.75
2022-08-03T23:19:48.666Z,2.40
2022-08-03T23:22:29.376Z,2.63
2022-08-03T23:24:57.812Z,2.28
2022-08-03T23:27:25.490Z,2.58
2022-08-03T23:29:54.635Z,3.33
2022-08-03T23:32:22.249Z,2.60
2022-08-03T23:35:02.206Z,3.00
2022-08-03T23:37:30.550Z,2.63
2022-08-03T23:39:59.242Z,2.90
2022-08-03T23:42:27.261Z,2.47
2022-08-03T23:44:59.567Z,2.45
2022-08-03T23:47:52.028Z,2.80
2022-08-03T23:50:19.691Z,2.80
2022-08-03T23:52:53.708Z,2.50
2022-08-03T23:55:27.758Z,2.50
2022-08-03T23:58:02.350Z,3.08
